sensor_id;sensor_type;location;lat;lon;timestamp;P1;durP1;ratioP1;P2;durP2;ratioP2
16436;SDS011;8328;52.206;21.006;2022-11-15T00:00:51;23.57;;;15.93;;
16436;SDS011;8328;52.206;21.006;2022-11-15T00:03:19;22.83;;;15.37;;
16436;SDS011;8328;52.206;21.006;2022-11-15T00:05:46;23.77;;;15.50;;
16436;SDS011;8328;52.206;21.006;2022-11-15T00:08:11;22.23;;;15.63;;
16436;SDS011;8328;52.206;21.006;2022-11-15T00:10:38;22.77;;;16.23;;
16436;SDS011;8328;52.206;21.006;2022-11-15T00:13:07;24.40;;;16.57;;
16436;SDS011;8328;52.206;21.006;2022-11-15T00:15:36;25.27;;;16.80;;
16436;SDS011;8328;52.206;21.006;2022-11-15T00:18:03;22.97;;;16.30;;
16436;SDS011;8328;52.206;21.006;2022-11-15T00:20:30;25.03;;;16.33;;
16436;SDS011;8328;52.206;21.006;2022-11-15T00:22:56;25.77;;;16.47;;
16436;SDS011;8328;52.206;21.006;2022-11-15T00:25:22;25.63;;;16.77;;
16436;SDS011;8328;52.206;21.006;2022-11-15T00:27:47;25.57;;;16.53;;
16436;SDS011;8328;52.206;21.006;2022-11-15T00:30:13;25.67;;;17.63;;
16436;SDS011;8328;52.206;21.006;2022-11-15T00:32:39;27.23;;;17.43;;
16436;SDS011;8328;52.206;21.006;2022-11-15T00:35:05;27.57;;;17.97;;
16436;SDS011;8328;52.206;21.006;2022-11-15T00:37:31;27.87;;;17.80;;
16436;SDS011;8328;52.206;21.006;2022-11-15T00:39:57;25.77;;;18.27;;
16436;SDS011;8328;52.206;21.006;2022-11-15T00:42:22;27.60;;;17.87;;
16436;SDS011;8328;52.206;21.006;2022-11-15T00:44:48;28.27;;;18.53;;
16436;SDS011;8328;52.206;21.006;2022-11-15T00:47:14;27.47;;;17.97;;
16436;SDS011;8328;52.206;21.006;2022-11-15T00:49:40;26.40;;;17.73;;
16436;SDS011;8328;52.206;21.006;2022-11-15T00:52:06;29.60;;;18.37;;
16436;SDS011;8328;52.206;21.006;2022-11-15T00:54:32;32.07;;;19.77;;
16436;SDS011;8328;52.206;21.006;2022-11-15T00:56:58;30.53;;;20.17;;
16436;SDS011;8328;52.206;21.006;2022-11-15T00:59:24;36.10;;;21.70;;
16436;SDS011;8328;52.206;21.006;2022-11-15T01:01:50;30.63;;;20.53;;
16436;SDS011;8328;52.206;21.006;2022-11-15T01:04:16;31.57;;;20.93;;
16436;SDS011;8328;52.206;21.006;2022-11-15T01:06:42;33.20;;;21.67;;
16436;SDS011;8328;52.206;21.006;2022-11-15T01:09:08;30.70;;;21.00;;
16436;SDS011;8328;52.206;21.006;2022-11-15T01:11:34;33.60;;;20.37;;
16436;SDS011;8328;52.206;21.006;2022-11-15T01:14:00;32.87;;;21.13;;
16436;SDS011;8328;52.206;21.006;2022-11-15T01:16:25;33.83;;;21.10;;
16436;SDS011;8328;52.206;21.006;2022-11-15T01:18:51;32.87;;;21.33;;
16436;SDS011;8328;52.206;21.006;2022-11-15T01:21:18;35.53;;;21.20;;
16436;SDS011;8328;52.206;21.006;2022-11-15T01:23:44;35.07;;;21.40;;
16436;SDS011;8328;52.206;21.006;2022-11-15T01:26:11;38.83;;;22.03;;
16436;SDS011;8328;52.206;21.006;2022-11-15T01:28:38;36.83;;;21.53;;
16436;SDS011;8328;52.206;21.006;2022-11-15T01:31:15;33.30;;;20.63;;
16436;SDS011;8328;52.206;21.006;2022-11-15T01:33:43;35.23;;;21.03;;
16436;SDS011;8328;52.206;21.006;2022-11-15T01:36:19;34.30;;;21.70;;
16436;SDS011;8328;52.206;21.006;2022-11-15T01:38:53;33.60;;;21.23;;
16436;SDS011;8328;52.206;21.006;2022-11-15T01:41:24;33.07;;;21.33;;
16436;SDS011;8328;52.206;21.006;2022-11-15T01:43:55;34.03;;;21.60;;
16436;SDS011;8328;52.206;21.006;2022-11-15T01:46:35;35.70;;;20.70;;
16436;SDS011;8328;52.206;21.006;2022-11-15T01:49:04;32.30;;;20.43;;
16436;SDS011;8328;52.206;21.006;2022-11-15T01:51:36;34.03;;;20.07;;
16436;SDS011;8328;52.206;21.006;2022-11-15T01:54:07;34.23;;;20.03;;
16436;SDS011;8328;52.206;21.006;2022-11-15T01:56:38;32.60;;;19.50;;
16436;SDS011;8328;52.206;21.006;2022-11-15T01:59:14;39.23;;;21.70;;
16436;SDS011;8328;52.206;21.006;2022-11-15T02:01:40;32.50;;;20.00;;
16436;SDS011;8328;52.206;21.006;2022-11-15T02:04:11;36.30;;;19.83;;
16436;SDS011;8328;52.206;21.006;2022-11-15T02:06:40;29.30;;;19.50;;
16436;SDS011;8328;52.206;21.006;2022-11-15T02:09:07;35.03;;;19.63;;
16436;SDS011;8328;52.206;21.006;2022-11-15T02:11:34;34.27;;;21.13;;
16436;SDS011;8328;52.206;21.006;2022-11-15T02:13:59;33.00;;;20.13;;
16436;SDS011;8328;52.206;21.006;2022-11-15T02:22:06;33.73;;;20.23;;
16436;SDS011;8328;52.206;21.006;2022-11-15T02:25:29;31.97;;;19.17;;
16436;SDS011;8328;52.206;21.006;2022-11-15T02:31:17;32.53;;;19.50;;
16436;SDS011;8328;52.206;21.006;2022-11-15T02:36:43;35.70;;;21.43;;
16436;SDS011;8328;52.206;21.006;2022-11-15T02:42:13;34.60;;;21.17;;
16436;SDS011;8328;52.206;21.006;2022-11-15T02:45:03;35.00;;;21.80;;
16436;SDS011;8328;52.206;21.006;2022-11-15T02:47:34;34.40;;;21.47;;
16436;SDS011;8328;52.206;21.006;2022-11-15T02:50:08;36.33;;;21.63;;
16436;SDS011;8328;52.206;21.006;2022-11-15T02:52:35;37.20;;;22.60;;
16436;SDS011;8328;52.206;21.006;2022-11-15T02:55:02;37.13;;;21.73;;
16436;SDS011;8328;52.206;21.006;2022-11-15T02:57:36;38.37;;;21.27;;
16436;SDS011;8328;52.206;21.006;2022-11-15T03:00:14;36.13;;;22.33;;
16436;SDS011;8328;52.206;21.006;2022-11-15T03:05:34;35.53;;;21.93;;
16436;SDS011;8328;52.206;21.006;2022-11-15T03:08:22;39.23;;;22.80;;
16436;SDS011;8328;52.206;21.006;2022-11-15T03:10:59;40.57;;;23.10;;
16436;SDS011;8328;52.206;21.006;2022-11-15T03:13:43;37.37;;;22.93;;
16436;SDS011;8328;52.206;21.006;2022-11-15T03:16:53;38.67;;;23.67;;
16436;SDS011;8328;52.206;21.006;2022-11-15T03:22:21;38.87;;;23.10;;
16436;SDS011;8328;52.206;21.006;2022-11-15T03:24:53;43.57;;;25.17;;
16436;SDS011;8328;52.206;21.006;2022-11-15T03:27:23;39.37;;;23.90;;
16436;SDS011;8328;52.206;21.006;2022-11-15T03:29:54;41.37;;;24.33;;
16436;SDS011;8328;52.206;21.006;2022-11-15T03:32:26;42.60;;;24.63;;
16436;SDS011;8328;52.206;21.006;2022-11-15T03:35:00;47.07;;;26.40;;
16436;SDS011;8328;52.206;21.006;2022-11-15T03:40:40;42.60;;;24.20;;
16436;SDS011;8328;52.206;21.006;2022-11-15T03:45:39;42.77;;;24.40;;
16436;SDS011;8328;52.206;21.006;2022-11-15T03:48:10;48.07;;;26.20;;
16436;SDS011;8328;52.206;21.006;2022-11-15T03:50:38;45.33;;;25.80;;
16436;SDS011;8328;52.206;21.006;2022-11-15T03:53:05;42.30;;;24.80;;
16436;SDS011;8328;52.206;21.006;2022-11-15T03:55:31;41.87;;;24.83;;
16436;SDS011;8328;52.206;21.006;2022-11-15T03:57:58;39.57;;;23.23;;
16436;SDS011;8328;52.206;21.006;2022-11-15T04:00:25;40.70;;;23.50;;
16436;SDS011;8328;52.206;21.006;2022-11-15T04:02:53;36.43;;;22.50;;
16436;SDS011;8328;52.206;21.006;2022-11-15T04:05:19;41.67;;;23.70;;
16436;SDS011;8328;52.206;21.006;2022-11-15T04:07:45;38.47;;;21.30;;
16436;SDS011;8328;52.206;21.006;2022-11-15T04:10:11;39.40;;;22.57;;
16436;SDS011;8328;52.206;21.006;2022-11-15T04:12:39;41.33;;;22.80;;
16436;SDS011;8328;52.206;21.006;2022-11-15T04:15:11;39.20;;;22.70;;
16436;SDS011;8328;52.206;21.006;2022-11-15T04:20:18;41.27;;;22.63;;
16436;SDS011;8328;52.206;21.006;2022-11-15T04:23:05;41.63;;;23.37;;
16436;SDS011;8328;52.206;21.006;2022-11-15T04:25:52;41.60;;;22.93;;
16436;SDS011;8328;52.206;21.006;2022-11-15T04:28:20;40.50;;;22.27;;
16436;SDS011;8328;52.206;21.006;2022-11-15T04:30:46;41.77;;;22.50;;
16436;SDS011;8328;52.206;21.006;2022-11-15T04:33:12;39.60;;;20.97;;
16436;SDS011;8328;52.206;21.006;2022-11-15T04:35:38;39.60;;;22.07;;
16436;SDS011;8328;52.206;21.006;2022-11-15T04:38:05;39.57;;;22.47;;
16436;SDS011;8328;52.206;21.006;2022-11-15T04:40:33;41.80;;;23.17;;
16436;SDS011;8328;52.206;21.006;2022-11-15T04:42:59;39.87;;;22.73;;
16436;SDS011;8328;52.206;21.006;2022-11-15T04:45:25;40.10;;;21.63;;
16436;SDS011;8328;52.206;21.006;2022-11-15T04:47:52;43.73;;;23.17;;
16436;SDS011;8328;52.206;21.006;2022-11-15T04:50:18;39.23;;;22.77;;
16436;SDS011;8328;52.206;21.006;2022-11-15T04:52:51;42.27;;;22.20;;
16436;SDS011;8328;52.206;21.006;2022-11-15T04:55:18;40.13;;;22.13;;
16436;SDS011;8328;52.206;21.006;2022-11-15T04:57:44;41.00;;;22.93;;
16436;SDS011;8328;52.206;21.006;2022-11-15T05:00:11;43.00;;;23.27;;
16436;SDS011;8328;52.206;21.006;2022-11-15T05:02:39;40.30;;;23.63;;
16436;SDS011;8328;52.206;21.006;2022-11-15T05:05:25;41.87;;;23.13;;
16436;SDS011;8328;52.206;21.006;2022-11-15T05:07:50;41.90;;;23.10;;
16436;SDS011;8328;52.206;21.006;2022-11-15T05:10:16;42.03;;;23.23;;
16436;SDS011;8328;52.206;21.006;2022-11-15T05:12:42;41.03;;;23.10;;
16436;SDS011;8328;52.206;21.006;2022-11-15T05:15:08;44.80;;;23.27;;
16436;SDS011;8328;52.206;21.006;2022-11-15T05:17:34;42.80;;;22.00;;
16436;SDS011;8328;52.206;21.006;2022-11-15T05:20:00;39.07;;;21.57;;
16436;SDS011;8328;52.206;21.006;2022-11-15T05:22:26;38.30;;;21.87;;
16436;SDS011;8328;52.206;21.006;2022-11-15T05:24:52;43.57;;;23.03;;
16436;SDS011;8328;52.206;21.006;2022-11-15T05:27:18;43.53;;;22.10;;
16436;SDS011;8328;52.206;21.006;2022-11-15T05:29:44;44.60;;;22.83;;
16436;SDS011;8328;52.206;21.006;2022-11-15T05:32:10;41.57;;;23.17;;
16436;SDS011;8328;52.206;21.006;2022-11-15T05:34:37;39.37;;;21.07;;
16436;SDS011;8328;52.206;21.006;2022-11-15T05:37:03;45.57;;;21.93;;
16436;SDS011;8328;52.206;21.006;2022-11-15T05:39:29;42.13;;;23.93;;
16436;SDS011;8328;52.206;21.006;2022-11-15T05:41:59;43.77;;;22.50;;
16436;SDS011;8328;52.206;21.006;2022-11-15T05:44:30;42.07;;;22.00;;
16436;SDS011;8328;52.206;21.006;2022-11-15T05:46:57;45.50;;;23.53;;
16436;SDS011;8328;52.206;21.006;2022-11-15T05:49:24;43.93;;;22.20;;
16436;SDS011;8328;52.206;21.006;2022-11-15T05:51:56;47.30;;;23.30;;
16436;SDS011;8328;52.206;21.006;2022-11-15T05:54:23;45.23;;;23.93;;
16436;SDS011;8328;52.206;21.006;2022-11-15T05:56:50;46.27;;;21.80;;
16436;SDS011;8328;52.206;21.006;2022-11-15T05:59:16;49.83;;;23.10;;
16436;SDS011;8328;52.206;21.006;2022-11-15T06:01:43;47.30;;;22.53;;
16436;SDS011;8328;52.206;21.006;2022-11-15T06:04:09;43.37;;;22.90;;
16436;SDS011;8328;52.206;21.006;2022-11-15T06:06:34;43.73;;;21.97;;
16436;SDS011;8328;52.206;21.006;2022-11-15T06:09:00;41.03;;;21.93;;
16436;SDS011;8328;52.206;21.006;2022-11-15T06:11:26;43.80;;;22.33;;
16436;SDS011;8328;52.206;21.006;2022-11-15T06:13:52;43.47;;;21.80;;
16436;SDS011;8328;52.206;21.006;2022-11-15T06:16:18;45.70;;;24.17;;
16436;SDS011;8328;52.206;21.006;2022-11-15T06:18:45;41.73;;;22.53;;
16436;SDS011;8328;52.206;21.006;2022-11-15T06:21:11;41.57;;;21.37;;
16436;SDS011;8328;52.206;21.006;2022-11-15T06:23:37;42.87;;;23.83;;
16436;SDS011;8328;52.206;21.006;2022-11-15T06:26:04;44.83;;;23.63;;
16436;SDS011;8328;52.206;21.006;2022-11-15T06:28:30;42.13;;;22.80;;
16436;SDS011;8328;52.206;21.006;2022-11-15T06:31:04;48.20;;;24.23;;
16436;SDS011;8328;52.206;21.006;2022-11-15T06:33:36;46.23;;;22.40;;
16436;SDS011;8328;52.206;21.006;2022-11-15T06:36:09;44.80;;;24.20;;
16436;SDS011;8328;52.206;21.006;2022-11-15T06:38:38;43.83;;;23.33;;
16436;SDS011;8328;52.206;21.006;2022-11-15T06:41:12;49.70;;;24.73;;
16436;SDS011;8328;52.206;21.006;2022-11-15T06:43:39;43.83;;;23.23;;
16436;SDS011;8328;52.206;21.006;2022-11-15T06:46:06;45.43;;;23.37;;
16436;SDS011;8328;52.206;21.006;2022-11-15T06:48:33;35.40;;;18.30;;
16436;SDS011;8328;52.206;21.006;2022-11-15T06:51:00;34.83;;;19.17;;
16436;SDS011;8328;52.206;21.006;2022-11-15T06:53:28;29.73;;;15.50;;
16436;SDS011;8328;52.206;21.006;2022-11-15T06:56:01;36.77;;;19.33;;
16436;SDS011;8328;52.206;21.006;2022-11-15T06:58:30;39.80;;;20.33;;
16436;SDS011;8328;52.206;21.006;2022-11-15T07:01:00;36.13;;;18.97;;
16436;SDS011;8328;52.206;21.006;2022-11-15T07:03:28;35.63;;;20.40;;
16436;SDS011;8328;52.206;21.006;2022-11-15T07:05:55;34.37;;;17.07;;
16436;SDS011;8328;52.206;21.006;2022-11-15T07:08:22;38.03;;;20.03;;
16436;SDS011;8328;52.206;21.006;2022-11-15T07:10:51;37.67;;;18.90;;
16436;SDS011;8328;52.206;21.006;2022-11-15T07:13:17;37.63;;;18.67;;
16436;SDS011;8328;52.206;21.006;2022-11-15T07:15:43;36.57;;;19.70;;
16436;SDS011;8328;52.206;21.006;2022-11-15T07:18:09;37.97;;;20.80;;
16436;SDS011;8328;52.206;21.006;2022-11-15T07:20:35;41.53;;;20.03;;
16436;SDS011;8328;52.206;21.006;2022-11-15T07:23:04;36.90;;;19.33;;
16436;SDS011;8328;52.206;21.006;2022-11-15T07:25:30;37.37;;;19.47;;
16436;SDS011;8328;52.206;21.006;2022-11-15T07:27:59;32.67;;;18.47;;
16436;SDS011;8328;52.206;21.006;2022-11-15T07:30:27;37.20;;;19.97;;
16436;SDS011;8328;52.206;21.006;2022-11-15T07:32:54;34.90;;;18.37;;
16436;SDS011;8328;52.206;21.006;2022-11-15T07:35:21;37.43;;;19.90;;
16436;SDS011;8328;52.206;21.006;2022-11-15T07:37:58;32.33;;;19.07;;
16436;SDS011;8328;52.206;21.006;2022-11-15T07:40:26;31.97;;;17.40;;
16436;SDS011;8328;52.206;21.006;2022-11-15T07:42:58;32.33;;;18.23;;
16436;SDS011;8328;52.206;21.006;2022-11-15T07:45:28;33.10;;;17.53;;
16436;SDS011;8328;52.206;21.006;2022-11-15T07:47:54;29.73;;;16.87;;
16436;SDS011;8328;52.206;21.006;2022-11-15T07:50:22;31.43;;;17.33;;
16436;SDS011;8328;52.206;21.006;2022-11-15T07:52:53;28.37;;;16.90;;
16436;SDS011;8328;52.206;21.006;2022-11-15T07:55:27;25.90;;;15.30;;
16436;SDS011;8328;52.206;21.006;2022-11-15T07:58:27;32.60;;;17.83;;
16436;SDS011;8328;52.206;21.006;2022-11-15T08:00:46;33.33;;;18.93;;
16436;SDS011;8328;52.206;21.006;2022-11-15T08:03:13;30.07;;;17.27;;
16436;SDS011;8328;52.206;21.006;2022-11-15T08:05:41;24.60;;;14.63;;
16436;SDS011;8328;52.206;21.006;2022-11-15T08:08:10;27.30;;;16.67;;
16436;SDS011;8328;52.206;21.006;2022-11-15T08:10:36;27.53;;;17.17;;
16436;SDS011;8328;52.206;21.006;2022-11-15T08:13:04;29.20;;;16.67;;
16436;SDS011;8328;52.206;21.006;2022-11-15T08:15:31;28.93;;;17.50;;
16436;SDS011;8328;52.206;21.006;2022-11-15T08:18:06;32.50;;;19.00;;
16436;SDS011;8328;52.206;21.006;2022-11-15T08:20:37;27.23;;;17.23;;
16436;SDS011;8328;52.206;21.006;2022-11-15T08:23:03;26.37;;;16.17;;
16436;SDS011;8328;52.206;21.006;2022-11-15T08:25:36;30.20;;;18.07;;
16436;SDS011;8328;52.206;21.006;2022-11-15T08:28:04;25.93;;;14.43;;
16436;SDS011;8328;52.206;21.006;2022-11-15T08:30:34;29.57;;;16.90;;
16436;SDS011;8328;52.206;21.006;2022-11-15T08:33:01;32.30;;;17.87;;
16436;SDS011;8328;52.206;21.006;2022-11-15T08:35:27;32.67;;;19.30;;
16436;SDS011;8328;52.206;21.006;2022-11-15T08:37:54;28.20;;;17.63;;
16436;SDS011;8328;52.206;21.006;2022-11-15T08:40:20;28.83;;;17.27;;
16436;SDS011;8328;52.206;21.006;2022-11-15T08:42:47;29.43;;;16.40;;
16436;SDS011;8328;52.206;21.006;2022-11-15T08:45:13;27.40;;;16.90;;
16436;SDS011;8328;52.206;21.006;2022-11-15T08:47:39;26.97;;;15.80;;
16436;SDS011;8328;52.206;21.006;2022-11-15T08:50:06;26.50;;;16.37;;
16436;SDS011;8328;52.206;21.006;2022-11-15T08:52:39;31.00;;;19.63;;
16436;SDS011;8328;52.206;21.006;2022-11-15T08:55:07;32.07;;;18.37;;
16436;SDS011;8328;52.206;21.006;2022-11-15T08:57:33;31.43;;;19.17;;
16436;SDS011;8328;52.206;21.006;2022-11-15T09:00:00;29.97;;;16.73;;
16436;SDS011;8328;52.206;21.006;2022-11-15T09:02:26;30.73;;;17.43;;
16436;SDS011;8328;52.206;21.006;2022-11-15T09:04:54;28.27;;;16.53;;
16436;SDS011;8328;52.206;21.006;2022-11-15T09:07:23;25.27;;;17.00;;
16436;SDS011;8328;52.206;21.006;2022-11-15T09:09:55;29.40;;;17.97;;
16436;SDS011;8328;52.206;21.006;2022-11-15T09:12:24;29.70;;;17.43;;
16436;SDS011;8328;52.206;21.006;2022-11-15T09:14:52;28.30;;;17.00;;
16436;SDS011;8328;52.206;21.006;2022-11-15T09:17:19;27.57;;;17.00;;
16436;SDS011;8328;52.206;21.006;2022-11-15T09:19:48;26.43;;;16.67;;
16436;SDS011;8328;52.206;21.006;2022-11-15T09:22:14;25.83;;;17.23;;
16436;SDS011;8328;52.206;21.006;2022-11-15T09:24:40;28.73;;;17.33;;
16436;SDS011;8328;52.206;21.006;2022-11-15T09:27:07;29.10;;;17.43;;
16436;SDS011;8328;52.206;21.006;2022-11-15T09:29:33;26.37;;;17.00;;
16436;SDS011;8328;52.206;21.006;2022-11-15T09:31:59;27.10;;;17.23;;
16436;SDS011;8328;52.206;21.006;2022-11-15T09:34:25;29.40;;;17.47;;
16436;SDS011;8328;52.206;21.006;2022-11-15T09:36:51;27.73;;;17.23;;
16436;SDS011;8328;52.206;21.006;2022-11-15T09:39:18;26.20;;;17.20;;
16436;SDS011;8328;52.206;21.006;2022-11-15T09:49:59;28.13;;;17.77;;
16436;SDS011;8328;52.206;21.006;2022-11-15T09:52:27;30.17;;;17.97;;
16436;SDS011;8328;52.206;21.006;2022-11-15T09:54:54;28.97;;;17.77;;
16436;SDS011;8328;52.206;21.006;2022-11-15T10:05:38;29.83;;;19.17;;
16436;SDS011;8328;52.206;21.006;2022-11-15T10:10:43;30.30;;;19.47;;
16436;SDS011;8328;52.206;21.006;2022-11-15T10:24:44;28.57;;;19.30;;
16436;SDS011;8328;52.206;21.006;2022-11-15T10:27:15;28.77;;;18.90;;
16436;SDS011;8328;52.206;21.006;2022-11-15T10:29:44;30.67;;;18.70;;
16436;SDS011;8328;52.206;21.006;2022-11-15T10:32:16;30.87;;;18.60;;
16436;SDS011;8328;52.206;21.006;2022-11-15T10:34:43;26.57;;;17.63;;
16436;SDS011;8328;52.206;21.006;2022-11-15T10:37:10;29.37;;;18.53;;
16436;SDS011;8328;52.206;21.006;2022-11-15T10:39:36;30.17;;;18.93;;
16436;SDS011;8328;52.206;21.006;2022-11-15T10:42:25;29.60;;;18.03;;
16436;SDS011;8328;52.206;21.006;2022-11-15T10:44:52;32.53;;;20.47;;
16436;SDS011;8328;52.206;21.006;2022-11-15T10:47:29;33.20;;;20.73;;
16436;SDS011;8328;52.206;21.006;2022-11-15T10:50:00;28.93;;;17.80;;
16436;SDS011;8328;52.206;21.006;2022-11-15T10:52:30;29.40;;;18.10;;
16436;SDS011;8328;52.206;21.006;2022-11-15T10:57:30;31.30;;;18.87;;
16436;SDS011;8328;52.206;21.006;2022-11-15T11:00:00;31.70;;;19.43;;
16436;SDS011;8328;52.206;21.006;2022-11-15T11:02:39;32.13;;;18.70;;
16436;SDS011;8328;52.206;21.006;2022-11-15T11:05:34;30.90;;;19.17;;
16436;SDS011;8328;52.206;21.006;2022-11-15T11:08:04;30.87;;;19.00;;
16436;SDS011;8328;52.206;21.006;2022-11-15T11:10:32;28.73;;;17.93;;
16436;SDS011;8328;52.206;21.006;2022-11-15T11:13:12;33.70;;;19.23;;
16436;SDS011;8328;52.206;21.006;2022-11-15T11:15:39;26.73;;;16.80;;
16436;SDS011;8328;52.206;21.006;2022-11-15T11:18:15;28.17;;;18.20;;
16436;SDS011;8328;52.206;21.006;2022-11-15T11:20:54;30.57;;;19.17;;
16436;SDS011;8328;52.206;21.006;2022-11-15T11:27:13;30.97;;;19.37;;
16436;SDS011;8328;52.206;21.006;2022-11-15T11:29:20;30.03;;;18.63;;
16436;SDS011;8328;52.206;21.006;2022-11-15T11:37:50;34.40;;;19.23;;
16436;SDS011;8328;52.206;21.006;2022-11-15T11:46:13;38.13;;;21.77;;
16436;SDS011;8328;52.206;21.006;2022-11-15T11:51:19;36.20;;;21.30;;
16436;SDS011;8328;52.206;21.006;2022-11-15T11:53:55;35.20;;;22.00;;
16436;SDS011;8328;52.206;21.006;2022-11-15T11:56:29;39.63;;;24.93;;
16436;SDS011;8328;52.206;21.006;2022-11-15T12:01:54;34.03;;;19.73;;
16436;SDS011;8328;52.206;21.006;2022-11-15T12:07:10;33.37;;;22.33;;
16436;SDS011;8328;52.206;21.006;2022-11-15T12:09:44;36.20;;;22.10;;
16436;SDS011;8328;52.206;21.006;2022-11-15T12:17:41;42.30;;;24.40;;
16436;SDS011;8328;52.206;21.006;2022-11-15T12:20:15;37.87;;;23.37;;
16436;SDS011;8328;52.206;21.006;2022-11-15T12:25:18;34.67;;;21.50;;
16436;SDS011;8328;52.206;21.006;2022-11-15T12:27:50;35.90;;;22.23;;
16436;SDS011;8328;52.206;21.006;2022-11-15T12:30:49;36.13;;;21.30;;
16436;SDS011;8328;52.206;21.006;2022-11-15T12:33:36;37.73;;;22.33;;
16436;SDS011;8328;52.206;21.006;2022-11-15T12:36:12;39.13;;;23.97;;
16436;SDS011;8328;52.206;21.006;2022-11-15T12:38:55;35.77;;;22.33;;
16436;SDS011;8328;52.206;21.006;2022-11-15T12:41:24;36.67;;;22.70;;
16436;SDS011;8328;52.206;21.006;2022-11-15T12:43:54;38.13;;;22.67;;
16436;SDS011;8328;52.206;21.006;2022-11-15T12:47:08;36.53;;;21.63;;
16436;SDS011;8328;52.206;21.006;2022-11-15T12:49:11;37.63;;;22.60;;
16436;SDS011;8328;52.206;21.006;2022-11-15T12:52:08;36.20;;;22.10;;
16436;SDS011;8328;52.206;21.006;2022-11-15T13:02:45;40.50;;;23.57;;
16436;SDS011;8328;52.206;21.006;2022-11-15T13:17:47;44.07;;;26.90;;
16436;SDS011;8328;52.206;21.006;2022-11-15T13:20:19;38.50;;;24.07;;
16436;SDS011;8328;52.206;21.006;2022-11-15T13:22:50;40.67;;;25.00;;
16436;SDS011;8328;52.206;21.006;2022-11-15T13:28:12;42.57;;;25.57;;
16436;SDS011;8328;52.206;21.006;2022-11-15T13:35:58;43.20;;;25.03;;
16436;SDS011;8328;52.206;21.006;2022-11-15T13:38:55;47.77;;;25.60;;
16436;SDS011;8328;52.206;21.006;2022-11-15T13:41:24;41.60;;;25.13;;
16436;SDS011;8328;52.206;21.006;2022-11-15T13:43:52;41.00;;;24.80;;
16436;SDS011;8328;52.206;21.006;2022-11-15T13:46:20;49.90;;;27.70;;
16436;SDS011;8328;52.206;21.006;2022-11-15T13:49:02;47.97;;;29.97;;
16436;SDS011;8328;52.206;21.006;2022-11-15T13:54:09;45.63;;;27.10;;
16436;SDS011;8328;52.206;21.006;2022-11-15T13:56:38;45.60;;;25.13;;
16436;SDS011;8328;52.206;21.006;2022-11-15T13:59:09;43.73;;;26.90;;
16436;SDS011;8328;52.206;21.006;2022-11-15T14:01:45;49.50;;;28.00;;
16436;SDS011;8328;52.206;21.006;2022-11-15T14:04:12;45.63;;;26.70;;
16436;SDS011;8328;52.206;21.006;2022-11-15T14:06:47;43.87;;;26.40;;
16436;SDS011;8328;52.206;21.006;2022-11-15T14:09:39;44.87;;;28.13;;
16436;SDS011;8328;52.206;21.006;2022-11-15T14:12:39;43.80;;;24.90;;
16436;SDS011;8328;52.206;21.006;2022-11-15T14:18:05;44.53;;;25.77;;
16436;SDS011;8328;52.206;21.006;2022-11-15T14:20:33;43.03;;;25.20;;
16436;SDS011;8328;52.206;21.006;2022-11-15T14:23:04;41.53;;;24.33;;
16436;SDS011;8328;52.206;21.006;2022-11-15T14:25:53;45.07;;;26.03;;
16436;SDS011;8328;52.206;21.006;2022-11-15T14:30:50;46.50;;;25.90;;
16436;SDS011;8328;52.206;21.006;2022-11-15T14:35:44;47.13;;;27.67;;
16436;SDS011;8328;52.206;21.006;2022-11-15T14:38:10;42.27;;;25.87;;
16436;SDS011;8328;52.206;21.006;2022-11-15T14:40:36;46.47;;;29.23;;
16436;SDS011;8328;52.206;21.006;2022-11-15T14:43:02;46.77;;;27.07;;
16436;SDS011;8328;52.206;21.006;2022-11-15T14:45:28;43.87;;;26.73;;
16436;SDS011;8328;52.206;21.006;2022-11-15T14:47:54;43.03;;;26.50;;
16436;SDS011;8328;52.206;21.006;2022-11-15T14:50:21;49.67;;;28.10;;
16436;SDS011;8328;52.206;21.006;2022-11-15T14:52:48;50.27;;;29.97;;
16436;SDS011;8328;52.206;21.006;2022-11-15T14:57:48;44.20;;;27.47;;
16436;SDS011;8328;52.206;21.006;2022-11-15T15:00:15;46.23;;;27.30;;
16436;SDS011;8328;52.206;21.006;2022-11-15T15:02:44;50.50;;;29.50;;
16436;SDS011;8328;52.206;21.006;2022-11-15T15:05:24;53.53;;;29.70;;
16436;SDS011;8328;52.206;21.006;2022-11-15T15:07:57;48.07;;;26.83;;
16436;SDS011;8328;52.206;21.006;2022-11-15T15:10:24;47.67;;;26.97;;
16436;SDS011;8328;52.206;21.006;2022-11-15T15:13:18;49.50;;;26.93;;
16436;SDS011;8328;52.206;21.006;2022-11-15T15:15:47;44.17;;;25.57;;
16436;SDS011;8328;52.206;21.006;2022-11-15T15:18:13;48.27;;;26.80;;
16436;SDS011;8328;52.206;21.006;2022-11-15T15:20:40;45.33;;;27.30;;
16436;SDS011;8328;52.206;21.006;2022-11-15T15:23:15;48.17;;;27.40;;
16436;SDS011;8328;52.206;21.006;2022-11-15T15:25:42;50.80;;;28.00;;
16436;SDS011;8328;52.206;21.006;2022-11-15T15:28:10;48.23;;;28.23;;
16436;SDS011;8328;52.206;21.006;2022-11-15T15:30:37;50.93;;;27.43;;
16436;SDS011;8328;52.206;21.006;2022-11-15T15:33:03;49.00;;;27.07;;
16436;SDS011;8328;52.206;21.006;2022-11-15T15:35:30;51.33;;;29.47;;
16436;SDS011;8328;52.206;21.006;2022-11-15T15:37:59;52.37;;;29.77;;
16436;SDS011;8328;52.206;21.006;2022-11-15T15:40:27;50.03;;;28.67;;
16436;SDS011;8328;52.206;21.006;2022-11-15T15:42:55;51.23;;;28.90;;
16436;SDS011;8328;52.206;21.006;2022-11-15T15:45:21;55.17;;;30.00;;
16436;SDS011;8328;52.206;21.006;2022-11-15T15:47:47;50.13;;;28.97;;
16436;SDS011;8328;52.206;21.006;2022-11-15T15:50:21;49.70;;;28.23;;
16436;SDS011;8328;52.206;21.006;2022-11-15T15:52:53;49.27;;;28.07;;
16436;SDS011;8328;52.206;21.006;2022-11-15T15:55:21;51.27;;;27.77;;
16436;SDS011;8328;52.206;21.006;2022-11-15T15:57:47;47.63;;;25.37;;
16436;SDS011;8328;52.206;21.006;2022-11-15T16:00:15;54.37;;;27.33;;
16436;SDS011;8328;52.206;21.006;2022-11-15T16:02:42;51.17;;;27.57;;
16436;SDS011;8328;52.206;21.006;2022-11-15T16:05:09;52.87;;;27.23;;
16436;SDS011;8328;52.206;21.006;2022-11-15T16:07:36;45.90;;;25.83;;
16436;SDS011;8328;52.206;21.006;2022-11-15T16:10:04;48.50;;;26.90;;
16436;SDS011;8328;52.206;21.006;2022-11-15T16:12:39;51.73;;;26.27;;
16436;SDS011;8328;52.206;21.006;2022-11-15T16:15:05;51.73;;;28.50;;
16436;SDS011;8328;52.206;21.006;2022-11-15T16:17:33;50.50;;;27.97;;
16436;SDS011;8328;52.206;21.006;2022-11-15T16:20:03;48.90;;;27.00;;
16436;SDS011;8328;52.206;21.006;2022-11-15T16:22:30;49.13;;;26.90;;
16436;SDS011;8328;52.206;21.006;2022-11-15T16:24:56;49.47;;;27.00;;
16436;SDS011;8328;52.206;21.006;2022-11-15T16:27:22;51.23;;;28.17;;
16436;SDS011;8328;52.206;21.006;2022-11-15T16:29:49;53.37;;;27.93;;
16436;SDS011;8328;52.206;21.006;2022-11-15T16:32:16;50.90;;;28.03;;
16436;SDS011;8328;52.206;21.006;2022-11-15T16:34:42;51.40;;;29.23;;
16436;SDS011;8328;52.206;21.006;2022-11-15T16:37:20;51.47;;;27.47;;
16436;SDS011;8328;52.206;21.006;2022-11-15T16:39:48;54.03;;;27.43;;
16436;SDS011;8328;52.206;21.006;2022-11-15T16:42:14;54.83;;;28.77;;
16436;SDS011;8328;52.206;21.006;2022-11-15T16:44:40;53.10;;;28.17;;
16436;SDS011;8328;52.206;21.006;2022-11-15T16:47:11;53.93;;;27.93;;
16436;SDS011;8328;52.206;21.006;2022-11-15T16:49:42;52.97;;;27.30;;
16436;SDS011;8328;52.206;21.006;2022-11-15T16:52:09;52.37;;;27.57;;